createdAt,value
2018-02-02T00:02:26.747Z,8.97
2018-02-02T00:04:54.316Z,5.83
2018-02-02T00:07:21.829Z,4.83
2018-02-02T00:09:49.340Z,4.43
2018-02-02T00:12:16.840Z,11.33
2018-02-02T00:14:44.329Z,9.40
2018-02-02T00:17:11.833Z,6.00
2018-02-02T00:19:39.352Z,8.43
2018-02-02T00:22:06.909Z,7.57
2018-02-02T00:24:34.508Z,9.50
2018-02-02T00:27:02.030Z,8.70
2018-02-02T00:29:29.602Z,6.30
2018-02-02T00:31:57.291Z,6.07
2018-02-02T00:34:24.818Z,5.60
2018-02-02T00:36:52.319Z,6.97
2018-02-02T00:39:19.829Z,7.13
2018-02-02T00:41:47.334Z,6.07
2018-02-02T00:44:14.827Z,5.83
2018-02-02T00:46:42.357Z,9.50
2018-02-02T00:49:09.849Z,7.03
2018-02-02T00:51:43.148Z,6.37
2018-02-02T00:54:10.688Z,6.00
2018-02-02T00:56:38.240Z,6.67
2018-02-02T00:59:05.754Z,7.07
2018-02-02T01:01:33.248Z,5.10
2018-02-02T01:04:00.871Z,6.60
2018-02-02T01:06:28.365Z,5.97
2018-02-02T01:08:55.876Z,5.77
2018-02-02T01:11:23.450Z,5.27
2018-02-02T01:13:50.946Z,5.90
2018-02-02T01:16:18.487Z,4.90
2018-02-02T01:18:45.978Z,5.90
2018-02-02T01:21:13.472Z,5.60
2018-02-02T01:23:41.036Z,4.87
2018-02-02T01:26:08.552Z,5.40
2018-02-02T01:28:36.088Z,4.90
2018-02-02T01:31:03.619Z,5.10
2018-02-02T01:33:31.129Z,4.53
2018-02-02T01:35:58.830Z,5.27
2018-02-02T01:38:26.345Z,6.17
2018-02-02T01:40:53.867Z,4.60
2018-02-02T01:43:21.414Z,5.60
2018-02-02T01:45:48.967Z,5.77
2018-02-02T01:48:21.363Z,5.90
2018-02-02T01:50:49.794Z,5.77
2018-02-02T01:53:17.319Z,5.90
2018-02-02T01:55:44.840Z,5.87
2018-02-02T01:58:12.420Z,5.10
2018-02-02T02:00:39.944Z,5.10
2018-02-02T02:03:07.457Z,5.70
2018-02-02T02:05:34.997Z,6.57
2018-02-02T02:08:02.489Z,5.30
2018-02-02T02:10:30.004Z,5.33
2018-02-02T02:12:57.749Z,4.93
2018-02-02T02:15:25.264Z,5.57
2018-02-02T02:17:52.773Z,5.87
2018-02-02T02:20:20.320Z,6.07
2018-02-02T02:22:47.840Z,5.33
2018-02-02T02:25:15.338Z,6.07
2018-02-02T02:27:42.924Z,7.43
2018-02-02T02:30:10.472Z,5.93
2018-02-02T02:32:37.980Z,7.30
2018-02-02T02:35:05.495Z,7.23
2018-02-02T02:37:33.033Z,7.27
2018-02-02T02:40:00.531Z,6.90
2018-02-02T02:42:28.061Z,7.97
2018-02-02T02:44:55.596Z,9.23
2018-02-02T02:47:23.165Z,8.07
2018-02-02T02:49:50.663Z,7.60
2018-02-02T02:52:18.177Z,6.70
2018-02-02T02:54:45.744Z,7.00
2018-02-02T02:57:13.337Z,7.50
2018-02-02T02:59:40.867Z,6.63
2018-02-02T03:02:08.379Z,7.53
2018-02-02T03:04:35.886Z,5.97
2018-02-02T03:07:03.408Z,6.60
2018-02-02T03:09:30.941Z,6.33
2018-02-02T03:11:58.572Z,7.80
2018-02-02T03:14:26.130Z,8.30
2018-02-02T03:16:53.710Z,7.20
2018-02-02T03:19:21.238Z,7.53
2018-02-02T03:21:48.772Z,7.47
2018-02-02T03:24:16.270Z,7.20
2018-02-02T03:26:43.781Z,6.13
2018-02-02T03:29:11.284Z,6.27
2018-02-02T03:31:38.807Z,6.80
2018-02-02T03:34:06.300Z,9.07
2018-02-02T03:36:33.874Z,7.60
2018-02-02T03:39:01.417Z,7.43
2018-02-02T03:41:28.938Z,7.00
2018-02-02T03:43:56.477Z,7.90
2018-02-02T03:46:23.996Z,7.40
2018-02-02T03:48:51.513Z,7.57
2018-02-02T03:51:19.226Z,7.83
2018-02-02T03:53:46.721Z,8.77
2018-02-02T03:56:14.267Z,8.20
2018-02-02T03:58:41.790Z,7.80
2018-02-02T04:01:09.308Z,7.30
2018-02-02T04:03:36.808Z,7.57
2018-02-02T04:06:04.332Z,8.30
2018-02-02T04:08:31.853Z,7.37
2018-02-02T04:10:59.378Z,7.90
2018-02-02T04:13:26.891Z,7.90
2018-02-02T04:15:54.413Z,6.83
2018-02-02T04:18:21.933Z,7.17
2018-02-02T04:20:49.733Z,8.40
2018-02-02T04:23:17.268Z,7.20
2018-02-02T04:25:44.786Z,7.20
2018-02-02T04:28:12.412Z,8.27
2018-02-02T04:30:39.932Z,8.13
2018-02-02T04:33:07.460Z,8.17
2018-02-02T04:35:34.981Z,10.10
2018-02-02T04:38:02.497Z,9.83
2018-02-02T04:40:30.033Z,10.50
2018-02-02T04:42:57.592Z,10.80
2018-02-02T04:45:25.120Z,9.37
2018-02-02T04:47:52.673Z,8.50
2018-02-02T04:50:20.446Z,9.70
2018-02-02T04:52:48.012Z,10.20
2018-02-02T04:55:15.566Z,9.97
2018-02-02T04:57:43.088Z,9.77
2018-02-02T05:00:10.669Z,9.90
2018-02-02T05:02:38.228Z,10.70
2018-02-02T05:05:05.755Z,9.73
2018-02-02T05:07:33.348Z,9.30
2018-02-02T05:10:00.928Z,10.47
2018-02-02T05:12:28.449Z,10.40
2018-02-02T05:14:55.992Z,9.90
2018-02-02T05:17:23.617Z,9.80
2018-02-02T05:19:51.145Z,9.23
2018-02-02T05:22:18.705Z,10.30
2018-02-02T05:24:46.263Z,10.20
2018-02-02T05:27:13.769Z,10.27
2018-02-02T05:29:41.275Z,9.70
2018-02-02T05:32:08.809Z,10.50
2018-02-02T05:34:36.526Z,10.03
2018-02-02T05:37:04.087Z,9.20
2018-02-02T05:39:31.636Z,13.87
2018-02-02T05:41:59.193Z,9.97
2018-02-02T05:44:26.737Z,9.50
2018-02-02T05:46:54.233Z,9.67
2018-02-02T05:49:21.749Z,10.80
2018-02-02T05:51:49.269Z,10.80
2018-02-02T05:54:16.833Z,10.00
2018-02-02T05:56:44.445Z,9.87
2018-02-02T05:59:11.948Z,8.97
2018-02-02T06:01:39.490Z,10.87
2018-02-02T06:04:07.005Z,10.73
2018-02-02T06:06:34.505Z,10.73
2018-02-02T06:09:02.037Z,10.77
2018-02-02T06:11:29.578Z,10.00
2018-02-02T06:13:57.143Z,12.30
2018-02-02T06:16:24.681Z,9.80
2018-02-02T06:18:52.290Z,10.67
2018-02-02T06:21:19.797Z,10.90
2018-02-02T06:23:47.325Z,10.77
2018-02-02T06:26:14.839Z,13.00
2018-02-02T06:28:43.381Z,13.50
2018-02-02T06:31:11.074Z,12.07
2018-02-02T06:33:38.616Z,10.80
2018-02-02T06:36:06.142Z,11.43
2018-02-02T06:38:33.831Z,10.43
2018-02-02T06:41:01.371Z,9.83
2018-02-02T06:43:28.874Z,11.50
2018-02-02T06:45:56.444Z,11.13
2018-02-02T06:48:23.965Z,11.33
2018-02-02T06:50:51.524Z,11.50
2018-02-02T06:53:19.074Z,10.60
2018-02-02T06:55:46.604Z,10.90
2018-02-02T06:58:14.137Z,10.00
2018-02-02T07:00:41.700Z,10.63
2018-02-02T07:03:09.220Z,11.43
2018-02-02T07:05:36.751Z,10.50
2018-02-02T07:08:04.276Z,11.47
2018-02-02T07:10:31.844Z,10.30
2018-02-02T07:12:59.395Z,9.53
2018-02-02T07:15:26.916Z,10.33
2018-02-02T07:17:54.476Z,9.40
2018-02-02T07:20:22.003Z,10.20
2018-02-02T07:22:49.527Z,10.90
2018-02-02T07:25:17.032Z,9.30
2018-02-02T07:27:44.560Z,11.63
2018-02-02T07:30:12.064Z,11.30
2018-02-02T07:32:39.613Z,10.50
2018-02-02T07:35:07.148Z,10.57
2018-02-02T07:37:34.673Z,9.43
2018-02-02T07:40:02.186Z,9.00
2018-02-02T07:42:29.709Z,9.27
2018-02-02T07:44:57.268Z,9.13
2018-02-02T07:47:24.813Z,7.93
2018-02-02T07:49:52.333Z,8.23
2018-02-02T07:52:19.944Z,9.07
2018-02-02T07:54:47.449Z,8.83
2018-02-02T07:57:14.976Z,8.70
2018-02-02T07:59:42.512Z,9.10
2018-02-02T08:02:10.033Z,7.60
2018-02-02T08:04:37.631Z,11.63
2018-02-02T08:07:05.495Z,10.07
2018-02-02T08:09:33.053Z,11.30
2018-02-02T08:12:00.546Z,8.10
2018-02-02T08:14:28.056Z,8.40
2018-02-02T08:16:55.576Z,11.87
2018-02-02T08:19:23.096Z,8.07
2018-02-02T08:21:50.633Z,21.87
2018-02-02T08:24:18.946Z,9.10
2018-02-02T08:26:46.481Z,8.30
2018-02-02T08:29:13.990Z,7.90
2018-02-02T08:31:41.933Z,7.97
2018-02-02T08:34:10.417Z,9.67
2018-02-02T08:36:37.958Z,9.73
2018-02-02T08:39:05.469Z,7.43
2018-02-02T08:41:33.021Z,7.40
2018-02-02T08:44:00.529Z,7.40
2018-02-02T08:46:28.039Z,7.23
2018-02-02T08:48:55.596Z,6.93
2018-02-02T08:51:23.117Z,7.37
2018-02-02T08:53:50.616Z,7.60
2018-02-02T08:56:18.177Z,11.00
2018-02-02T08:58:45.711Z,7.60
2018-02-02T09:01:18.865Z,6.87
2018-02-02T09:03:46.777Z,9.00
2018-02-02T09:06:14.305Z,7.20
2018-02-02T09:08:41.865Z,6.90
2018-02-02T09:11:09.421Z,6.70
2018-02-02T09:13:36.929Z,7.53
2018-02-02T09:16:04.477Z,7.60
2018-02-02T09:18:31.997Z,5.97
2018-02-02T09:20:59.522Z,9.40
2018-02-02T09:23:27.065Z,8.70
2018-02-02T09:25:54.579Z,8.00
2018-02-02T09:28:22.101Z,6.07
2018-02-02T09:30:49.649Z,6.80
2018-02-02T09:33:17.217Z,5.53
2018-02-02T09:35:44.754Z,8.17
2018-02-02T09:38:12.297Z,7.77
2018-02-02T09:40:39.834Z,10.83
2018-02-02T09:43:07.405Z,9.77
2018-02-02T09:45:34.929Z,19.90
2018-02-02T09:48:02.438Z,6.67
2018-02-02T09:50:30.914Z,7.03
2018-02-02T09:52:58.486Z,8.70
2018-02-02T09:55:26.010Z,6.93
2018-02-02T09:57:53.558Z,5.67
2018-02-02T10:00:21.159Z,6.57
2018-02-02T10:02:48.711Z,7.43
2018-02-02T10:05:16.902Z,5.90
2018-02-02T10:07:44.407Z,4.77
2018-02-02T10:10:11.953Z,5.30
2018-02-02T10:12:40.629Z,6.20
2018-02-02T10:15:08.135Z,5.50
2018-02-02T10:17:35.693Z,5.90
2018-02-02T10:20:03.213Z,5.70
2018-02-02T10:22:30.745Z,5.93
2018-02-02T10:24:58.274Z,9.77
2018-02-02T10:27:25.805Z,5.43
2018-02-02T10:29:53.338Z,5.40
2018-02-02T10:32:20.918Z,6.37
2018-02-02T10:34:48.422Z,6.80
2018-02-02T10:37:15.930Z,6.43
2018-02-02T10:39:43.462Z,6.23
2018-02-02T10:42:11.041Z,9.50
2018-02-02T10:44:38.629Z,5.30
2018-02-02T10:47:06.160Z,5.47
2018-02-02T10:49:33.710Z,7.10
2018-02-02T10:52:01.286Z,8.17
2018-02-02T10:54:28.873Z,6.47
2018-02-02T10:56:56.429Z,6.40
2018-02-02T10:59:23.952Z,6.20
2018-02-02T11:01:57.060Z,7.00
2018-02-02T11:04:24.562Z,6.90
2018-02-02T11:06:52.086Z,8.03
2018-02-02T11:09:19.609Z,6.60
2018-02-02T11:11:47.145Z,7.27
2018-02-02T11:14:14.658Z,6.10
2018-02-02T11:16:42.210Z,6.70
2018-02-02T11:19:09.739Z,5.73
2018-02-02T11:21:37.257Z,5.33
2018-02-02T11:24:05.006Z,7.03
2018-02-02T11:26:32.566Z,6.93
2018-02-02T11:29:00.114Z,7.90
2018-02-02T11:31:27.650Z,7.13
2018-02-02T11:33:55.177Z,6.80
2018-02-02T11:36:22.697Z,5.60
2018-02-02T11:38:50.219Z,6.20
2018-02-02T11:41:17.745Z,7.20
2018-02-02T11:43:45.265Z,6.80
2018-02-02T11:46:12.789Z,5.47
2018-02-02T11:48:40.329Z,5.63
2018-02-02T11:51:07.877Z,6.77
2018-02-02T11:53:35.427Z,5.53
2018-02-02T11:56:03.195Z,4.97
2018-02-02T11:58:30.717Z,6.30
2018-02-02T12:00:58.257Z,10.87
2018-02-02T12:03:25.797Z,7.70
2018-02-02T12:05:53.310Z,16.47
2018-02-02T12:08:20.825Z,6.00
2018-02-02T12:10:48.523Z,7.40
2018-02-02T12:13:16.044Z,5.90
2018-02-02T12:15:43.606Z,5.57
2018-02-02T12:18:11.105Z,5.67
2018-02-02T12:20:38.598Z,6.13
2018-02-02T12:26:17.963Z,6.93
2018-02-02T12:29:00.367Z,6.97
2018-02-02T12:31:33.613Z,4.70
2018-02-02T12:34:03.058Z,5.57
2018-02-02T12:36:30.583Z,5.83
2018-02-02T12:38:58.121Z,8.03
2018-02-02T12:41:25.620Z,5.83
2018-02-02T12:43:53.146Z,6.73
2018-02-02T12:46:20.638Z,7.03
2018-02-02T12:48:57.976Z,7.53
2018-02-02T12:51:25.559Z,7.53
2018-02-02T12:53:53.076Z,5.93
2018-02-02T12:56:20.672Z,7.07
2018-02-02T12:58:48.165Z,6.97
2018-02-02T13:01:15.796Z,7.47
2018-02-02T13:03:43.346Z,7.60
2018-02-02T13:06:10.865Z,5.47
2018-02-02T13:08:38.370Z,6.03
2018-02-02T13:11:05.924Z,9.33
2018-02-02T13:13:33.498Z,9.60
2018-02-02T13:16:00.993Z,7.17
2018-02-02T13:18:28.567Z,9.70
2018-02-02T13:20:56.120Z,6.70
2018-02-02T13:23:23.649Z,5.67
2018-02-02T13:25:51.403Z,6.20
2018-02-02T13:28:18.913Z,6.10
2018-02-02T13:30:46.443Z,6.77
2018-02-02T13:33:14.175Z,5.83
2018-02-02T13:35:41.702Z,5.70
2018-02-02T13:38:09.234Z,8.10
2018-02-02T13:40:36.806Z,7.20
2018-02-02T13:43:04.313Z,6.10
2018-02-02T13:45:31.858Z,6.97
2018-02-02T13:47:59.379Z,8.00
2018-02-02T13:50:26.873Z,9.13
2018-02-02T13:52:54.409Z,7.67
2018-02-02T13:55:21.908Z,6.40
2018-02-02T13:57:49.472Z,7.43
2018-02-02T14:00:17.020Z,7.37
2018-02-02T14:02:44.530Z,7.77
2018-02-02T14:05:12.053Z,5.63
2018-02-02T14:07:39.562Z,5.80
2018-02-02T14:10:07.075Z,5.80
2018-02-02T14:12:34.585Z,7.73
2018-02-02T14:15:02.081Z,4.80
2018-02-02T14:17:29.644Z,4.93
2018-02-02T14:19:57.197Z,5.87
2018-02-02T14:22:24.760Z,7.50
2018-02-02T14:24:52.307Z,6.07
2018-02-02T14:27:19.858Z,5.60
2018-02-02T14:29:47.409Z,7.63
2018-02-02T14:32:14.945Z,7.03
2018-02-02T14:34:42.471Z,8.60
2018-02-02T14:37:10.019Z,8.43
2018-02-02T14:39:37.774Z,6.87
2018-02-02T14:42:05.278Z,6.80
2018-02-02T14:44:32.876Z,8.17
2018-02-02T14:47:00.385Z,7.20
2018-02-02T14:49:27.905Z,7.80
2018-02-02T14:51:55.439Z,6.33
2018-02-02T14:54:22.968Z,6.10
2018-02-02T14:56:50.461Z,4.70
2018-02-02T14:59:17.969Z,5.50
2018-02-02T15:01:45.514Z,5.47
2018-02-02T15:04:13.025Z,6.03
2018-02-02T15:06:40.616Z,6.63
2018-02-02T15:09:08.163Z,8.13
2018-02-02T15:11:35.664Z,7.73
2018-02-02T15:14:03.191Z,5.57
2018-02-02T15:16:30.733Z,4.90
2018-02-02T15:18:58.313Z,6.47
2018-02-02T15:21:25.839Z,5.90
2018-02-02T15:23:53.437Z,5.57
2018-02-02T15:26:20.956Z,4.47
2018-02-02T15:28:48.501Z,5.80
2018-02-02T15:31:16.016Z,5.90
2018-02-02T15:33:43.636Z,5.80
2018-02-02T15:36:11.175Z,7.00
2018-02-02T15:38:38.700Z,7.20
2018-02-02T15:41:06.218Z,7.20
2018-02-02T15:43:33.767Z,6.20
2018-02-02T15:46:01.297Z,7.20
2018-02-02T15:48:28.804Z,6.97
2018-02-02T15:50:56.306Z,6.30
2018-02-02T15:53:23.826Z,6.50
2018-02-02T15:55:51.578Z,6.40
2018-02-02T15:58:19.094Z,6.40
2018-02-02T16:00:46.615Z,7.00
2018-02-02T16:03:14.165Z,5.73
2018-02-02T16:05:41.686Z,7.20
2018-02-02T16:08:09.173Z,7.13
2018-02-02T16:10:36.689Z,9.10
2018-02-02T16:13:04.222Z,7.90
2018-02-02T16:15:31.786Z,6.23
2018-02-02T16:17:59.322Z,7.53
2018-02-02T16:20:26.828Z,8.17
2018-02-02T16:22:54.366Z,10.83
2018-02-02T16:25:22.085Z,7.53
2018-02-02T16:27:49.605Z,6.80
2018-02-02T16:30:17.125Z,6.73
2018-02-02T16:32:44.673Z,9.20
2018-02-02T16:35:12.198Z,8.20
2018-02-02T16:37:39.709Z,10.00
2018-02-02T16:40:07.232Z,7.67
2018-02-02T16:42:34.763Z,6.50
2018-02-02T16:45:02.284Z,6.40
2018-02-02T16:47:29.801Z,8.40
2018-02-02T16:49:57.476Z,8.37
2018-02-02T16:52:25.000Z,8.20
2018-02-02T16:54:52.502Z,7.40
2018-02-02T16:57:20.253Z,7.70
2018-02-02T16:59:47.744Z,8.67
2018-02-02T17:02:15.257Z,9.37
2018-02-02T17:04:42.785Z,7.90
2018-02-02T17:07:10.275Z,7.70
2018-02-02T17:09:37.792Z,13.03
2018-02-02T17:12:05.317Z,9.27
2018-02-02T17:14:32.877Z,14.10
2018-02-02T17:17:00.395Z,7.60
2018-02-02T17:19:27.925Z,9.70
2018-02-02T17:21:55.455Z,9.17
2018-02-02T17:24:22.981Z,9.60
2018-02-02T17:26:50.777Z,8.47
2018-02-02T17:29:18.301Z,11.80
2018-02-02T17:31:45.797Z,10.20
2018-02-02T17:34:13.350Z,11.40
2018-02-02T17:36:40.851Z,14.27
2018-02-02T17:39:08.346Z,13.50
2018-02-02T17:41:35.884Z,9.93
2018-02-02T17:44:03.385Z,10.23
2018-02-02T17:46:30.912Z,15.17
2018-02-02T17:48:58.582Z,13.77
2018-02-02T17:51:26.088Z,15.13
2018-02-02T17:53:53.625Z,14.20
2018-02-02T17:56:21.254Z,11.10
2018-02-02T17:58:48.790Z,44.70
2018-02-02T18:01:21.165Z,38.07
2018-02-02T18:03:48.669Z,30.93
2018-02-02T18:06:16.233Z,23.73
2018-02-02T18:08:43.787Z,16.77
2018-02-02T18:11:11.289Z,10.67
2018-02-02T18:13:38.802Z,13.20
2018-02-02T18:16:06.305Z,13.93
2018-02-02T18:18:33.850Z,17.30
2018-02-02T18:21:01.375Z,11.27
2018-02-02T18:23:28.953Z,12.13
2018-02-02T18:25:56.481Z,12.03
2018-02-02T18:28:24.003Z,11.67
2018-02-02T18:30:51.549Z,11.43
2018-02-02T18:33:19.045Z,15.87
2018-02-02T18:35:46.546Z,10.77
2018-02-02T18:38:14.120Z,12.90
2018-02-02T18:40:41.623Z,16.20
2018-02-02T18:43:09.142Z,10.77
2018-02-02T18:45:36.764Z,12.17
2018-02-02T18:48:04.360Z,13.63
2018-02-02T18:50:32.204Z,11.43
2018-02-02T18:52:59.784Z,10.30
2018-02-02T18:55:27.302Z,13.90
2018-02-02T18:57:54.892Z,11.77
2018-02-02T19:00:22.405Z,11.67
2018-02-02T19:02:49.919Z,12.87
2018-02-02T19:05:17.454Z,13.37
2018-02-02T19:07:45.018Z,12.37
2018-02-02T19:10:12.585Z,11.73
2018-02-02T19:12:40.098Z,17.17
2018-02-02T19:15:07.703Z,13.33
2018-02-02T19:17:35.212Z,13.70
2018-02-02T19:20:02.849Z,14.37
2018-02-02T19:22:30.370Z,11.90
2018-02-02T19:24:57.912Z,14.97
2018-02-02T19:27:25.481Z,16.13
2018-02-02T19:29:52.986Z,12.10
2018-02-02T19:32:20.537Z,13.27
2018-02-02T19:34:48.062Z,16.07
2018-02-02T19:37:15.565Z,11.87
2018-02-02T19:39:43.071Z,13.37
2018-02-02T19:42:10.613Z,12.57
2018-02-02T19:44:38.105Z,12.40
2018-02-02T19:47:05.632Z,13.20
2018-02-02T19:49:33.181Z,15.63
2018-02-02T19:52:00.677Z,14.83
2018-02-02T19:54:28.346Z,21.90
2018-02-02T19:56:56.166Z,13.13
2018-02-02T19:59:23.690Z,21.27
2018-02-02T20:01:51.220Z,15.60
2018-02-02T20:04:18.756Z,17.00
2018-02-02T20:06:46.300Z,18.13
2018-02-02T20:09:13.837Z,13.07
2018-02-02T20:11:41.371Z,14.37
2018-02-02T20:14:08.961Z,16.20
2018-02-02T20:16:36.465Z,18.30
2018-02-02T20:19:03.990Z,15.23
2018-02-02T20:21:31.549Z,21.17
2018-02-02T20:23:59.069Z,14.13
2018-02-02T20:26:26.592Z,20.30
2018-02-02T20:28:54.138Z,22.83
2018-02-02T20:31:21.818Z,19.30
2018-02-02T20:33:49.348Z,21.03
2018-02-02T20:36:16.889Z,11.90
2018-02-02T20:38:44.705Z,12.20
2018-02-02T20:41:12.249Z,15.10
2018-02-02T20:43:39.790Z,12.13
2018-02-02T20:46:07.336Z,18.00
2018-02-02T20:48:34.857Z,11.90
2018-02-02T20:51:02.404Z,12.57
2018-02-02T20:53:29.980Z,13.70
2018-02-02T20:55:57.508Z,14.00
2018-02-02T20:58:25.041Z,11.50
2018-02-02T21:00:52.619Z,21.97
2018-02-02T21:03:20.149Z,21.47
2018-02-02T21:05:47.653Z,19.80
2018-02-02T21:08:15.197Z,15.40
2018-02-02T21:10:42.776Z,11.77
2018-02-02T21:13:10.327Z,20.40
2018-02-02T21:15:37.846Z,15.47
2018-02-02T21:18:05.370Z,23.87
2018-02-02T21:20:32.918Z,17.40
2018-02-02T21:23:00.453Z,16.93
2018-02-02T21:25:28.233Z,23.03
2018-02-02T21:27:55.745Z,14.80
2018-02-02T21:30:23.284Z,18.70
2018-02-02T21:32:50.796Z,15.73
2018-02-02T21:35:18.350Z,20.27
2018-02-02T21:37:45.886Z,13.73
2018-02-02T21:40:13.421Z,24.23
2018-02-02T21:42:40.966Z,28.37
2018-02-02T21:45:08.694Z,22.93
2018-02-02T21:47:36.203Z,18.10
2018-02-02T21:50:03.728Z,14.80
2018-02-02T21:52:31.276Z,14.60
2018-02-02T21:54:58.841Z,25.30
2018-02-02T21:57:26.416Z,18.73
2018-02-02T21:59:53.979Z,16.93
2018-02-02T22:02:21.493Z,16.90
2018-02-02T22:04:49.017Z,15.90
2018-02-02T22:07:16.561Z,14.37
2018-02-02T22:09:44.342Z,13.47
2018-02-02T22:12:11.914Z,19.77
2018-02-02T22:14:39.427Z,22.33
2018-02-02T22:17:06.961Z,31.33
2018-02-02T22:19:34.485Z,14.47
2018-02-02T22:22:02.336Z,25.43
2018-02-02T22:24:30.014Z,13.00
2018-02-02T22:26:57.581Z,17.60
2018-02-02T22:29:25.126Z,13.20
2018-02-02T22:31:52.649Z,15.03
2018-02-02T22:34:20.247Z,15.87
2018-02-02T22:36:47.792Z,27.83
2018-02-02T22:39:15.335Z,12.90
2018-02-02T22:41:42.860Z,16.43
2018-02-02T22:44:10.357Z,16.23
2018-02-02T22:46:37.893Z,23.30
2018-02-02T22:49:05.533Z,15.93
2018-02-02T22:51:33.043Z,17.83
2018-02-02T22:54:00.549Z,26.73
2018-02-02T22:56:28.077Z,16.47
2018-02-02T22:58:57.347Z,22.37
2018-02-02T23:01:24.881Z,21.50
2018-02-02T23:03:52.436Z,16.73
2018-02-02T23:06:19.981Z,16.73
2018-02-02T23:08:47.509Z,18.50
2018-02-02T23:11:15.095Z,24.90
2018-02-02T23:13:42.607Z,18.17
2018-02-02T23:16:10.113Z,18.13
2018-02-02T23:18:37.665Z,29.70
2018-02-02T23:21:05.196Z,31.40
2018-02-02T23:23:32.735Z,85.70
2018-02-02T23:26:00.265Z,22.07
2018-02-02T23:28:27.803Z,18.23
2018-02-02T23:30:55.351Z,25.43
2018-02-02T23:33:23.056Z,14.63
2018-02-02T23:35:50.601Z,18.03
2018-02-02T23:38:18.115Z,14.60
2018-02-02T23:40:45.629Z,16.40
2018-02-02T23:43:13.150Z,19.27
2018-02-02T23:45:40.649Z,25.77
2018-02-02T23:48:08.200Z,21.93
2018-02-02T23:50:35.987Z,78.07
2018-02-02T23:53:03.518Z,16.67
2018-02-02T23:55:31.173Z,17.57
2018-02-02T23:57:58.750Z,25.43
